map of LIL home
LIL - Airport
Location
City:  Lille, Nord-Pas-de-Calais, France
Name:Lesquin
ICAO:LFQQ
IATA:LIL

Details
Type:Airport (Aerodrome, Airfield)
Use:Public/Civil, International (customs port of entry)
Latitude:5033'48"N (50.563333)
Longitude:305'13"E (3.086944)
Elevation:157 ft (48 m)
Variation:0.60E (WMM2015 magnetic declination)
0.14 annual change
Runways:2
Longest:9268 × 148 ft (2825 × 45 m)

Time
Time Zone:UTC+1 (DST+2)
Local Time:

Weather
METAR:LFQQ 260830Z AUTO 10007KT CAVOK 11/02 Q1022 NOSIG
TAF:LFQQ 260500Z 2606/2712 06010KT CAVOK
BECMG 2710/2712 12005KT= TAF LFRB 260500Z 2606/2712 08008KT 9999 SCT044
BECMG 2709/2712 13012G24KT CAVOK

Related Locations
Nearby:
Farthest:CHT: 11963 mi / 19252 km
Waitangi [Tuuta], CIT, NZ

Find:

   beyond  
but within

Other Information
Maps:
NOTAMs:
Links:
Sources:

  
flag of France
flag of Nord-Pas-de-Calais
  

Sectional Chart

Flight Planning
at skyvector.com

Satellite Image

Google Maps Satellite view

 

Copyright © 2004-2017 Karl L. Swartz. All rights reserved.
The Great Circle Mapper name and logo are trademarks of the Great Circle Mapper.
All other trademarks mentioned herein belong to their respective owners.
Please see credits for attibutions and further copyright information.

  Follow gcmap on Facebook Follow gcmap on Twitter Follow gcmap on Google+ GCmap on LinkedIn

hCard Microformat

Geo Microformat